createdAt,value
2022-09-25T00:00:27.963Z,77.02
2022-09-25T00:02:57.722Z,78.08
2022-09-25T00:05:27.242Z,77.75
2022-09-25T00:07:56.816Z,78.33
2022-09-25T00:10:27.896Z,77.59
2022-09-25T00:12:57.690Z,77.94
2022-09-25T00:15:27.572Z,78.28
2022-09-25T00:17:57.007Z,77.89
2022-09-25T00:20:26.713Z,78.51
2022-09-25T00:22:56.803Z,78.15
2022-09-25T00:25:28.185Z,79.12
2022-09-25T00:27:58.203Z,78.50
2022-09-25T00:30:28.018Z,78.50
2022-09-25T00:32:58.205Z,78.63
2022-09-25T00:35:27.945Z,78.19
2022-09-25T00:37:57.960Z,78.55
2022-09-25T00:40:27.466Z,77.83
2022-09-25T00:42:57.507Z,78.34
2022-09-25T00:45:27.315Z,78.09
2022-09-25T00:48:03.762Z,78.17
2022-09-25T00:50:36.556Z,78.08
2022-09-25T00:53:09.637Z,78.63
2022-09-25T00:55:41.664Z,77.94
2022-09-25T00:58:14.991Z,77.79
2022-09-25T01:00:45.577Z,77.78
2022-09-25T01:03:17.432Z,78.17
2022-09-25T01:05:49.221Z,77.88
2022-09-25T01:08:22.054Z,77.44
2022-09-25T01:10:52.047Z,78.63
2022-09-25T01:13:22.211Z,78.16
2022-09-25T01:16:03.796Z,77.58
2022-09-25T01:18:56.726Z,78.09
2022-09-25T01:21:47.150Z,77.87
2022-09-25T01:24:26.257Z,78.29
2022-09-25T01:27:15.181Z,79.32
2022-09-25T01:29:48.223Z,78.54
2022-09-25T01:32:21.006Z,78.22
2022-09-25T01:34:53.512Z,79.30
2022-09-25T01:37:35.073Z,78.95
2022-09-25T01:40:08.375Z,78.97
2022-09-25T01:42:48.466Z,78.81
2022-09-25T01:45:24.027Z,78.66
2022-09-25T01:47:56.327Z,78.66
2022-09-25T01:50:28.804Z,78.85
2022-09-25T01:53:01.340Z,79.79
2022-09-25T01:55:36.696Z,80.16
2022-09-25T01:58:14.683Z,80.23
2022-09-25T02:00:49.136Z,79.96
2022-09-25T02:03:25.831Z,79.19
2022-09-25T02:05:58.489Z,79.34
2022-09-25T02:08:33.497Z,79.00
2022-09-25T02:11:06.707Z,78.73
2022-09-25T02:13:39.437Z,79.84
2022-09-25T02:16:12.317Z,79.52
2022-09-25T02:19:00.246Z,79.63
2022-09-25T02:21:58.844Z,79.63
2022-09-25T02:24:47.174Z,79.90
2022-09-25T02:27:20.742Z,79.14
2022-09-25T02:29:52.217Z,79.35
2022-09-25T02:32:24.852Z,79.92
2022-09-25T02:34:54.639Z,79.59
2022-09-25T02:37:24.436Z,79.60
2022-09-25T02:39:57.961Z,78.88
2022-09-25T02:42:33.627Z,79.39
2022-09-25T02:45:08.628Z,79.75
2022-09-25T02:47:56.586Z,79.80
2022-09-25T02:50:40.609Z,79.94
2022-09-25T02:53:22.446Z,80.14
2022-09-25T02:58:55.781Z,79.10
2022-09-25T03:01:29.153Z,79.54
2022-09-25T03:04:01.615Z,79.12
2022-09-25T03:06:32.327Z,79.08
2022-09-25T03:09:03.195Z,79.30
2022-09-25T03:11:32.946Z,78.06
2022-09-25T03:14:05.823Z,78.57
2022-09-25T03:16:50.297Z,79.39
2022-09-25T03:19:20.520Z,79.39
2022-09-25T03:21:51.052Z,79.51
2022-09-25T03:24:21.910Z,79.24
2022-09-25T03:26:51.733Z,78.72
2022-09-25T03:29:22.609Z,78.72
2022-09-25T03:31:52.358Z,79.09
2022-09-25T03:34:22.982Z,79.24
2022-09-25T03:36:52.705Z,78.80
2022-09-25T03:39:22.808Z,79.02
2022-09-25T03:41:52.551Z,78.60
2022-09-25T03:44:22.588Z,78.55
2022-09-25T03:46:52.175Z,79.06
2022-09-25T03:49:22.564Z,78.54
2022-09-25T03:51:52.314Z,78.74
2022-09-25T03:54:22.343Z,79.08
2022-09-25T03:56:52.071Z,78.52
2022-09-25T03:59:22.174Z,79.13
2022-09-25T04:01:51.984Z,79.61
2022-09-25T04:04:22.557Z,78.83
2022-09-25T04:06:52.584Z,78.45
2022-09-25T04:09:23.286Z,79.80
2022-09-25T04:11:54.659Z,79.24
2022-09-25T04:14:24.671Z,79.40
2022-09-25T04:16:54.440Z,79.51
2022-09-25T04:19:24.518Z,79.29
2022-09-25T04:21:54.290Z,78.73
2022-09-25T04:24:41.818Z,78.97
2022-09-25T04:27:10.596Z,78.42
2022-09-25T04:29:39.937Z,79.42
2022-09-25T04:32:27.457Z,79.34
2022-09-25T04:34:57.760Z,79.38
2022-09-25T04:37:28.063Z,79.30
2022-09-25T04:39:58.431Z,79.36
2022-09-25T04:42:28.093Z,79.09
2022-09-25T04:44:58.842Z,78.20
2022-09-25T04:47:31.376Z,78.79
2022-09-25T04:50:01.135Z,78.67
2022-09-25T04:52:31.692Z,78.99
2022-09-25T04:55:01.727Z,79.08
2022-09-25T04:57:56.634Z,80.00
2022-09-25T05:00:02.970Z,79.70
2022-09-25T05:02:32.669Z,79.47
2022-09-25T05:05:02.628Z,79.20
2022-09-25T05:07:32.377Z,79.21
2022-09-25T05:10:02.101Z,79.58
2022-09-25T05:12:32.075Z,79.57
2022-09-25T05:15:02.344Z,78.89
2022-09-25T05:17:32.064Z,79.12
2022-09-25T05:20:02.676Z,79.32
2022-09-25T05:22:32.403Z,79.50
2022-09-25T05:25:02.144Z,79.82
2022-09-25T05:27:34.241Z,79.10
2022-09-25T05:30:03.755Z,78.39
2022-09-25T05:32:33.280Z,78.31
2022-09-25T05:35:03.680Z,78.52
2022-09-25T05:37:34.951Z,79.21
2022-09-25T05:40:04.445Z,78.90
2022-09-25T05:42:34.951Z,80.04
2022-09-25T05:45:07.580Z,79.83
2022-09-25T05:47:36.376Z,79.80
2022-09-25T05:50:09.230Z,79.37
2022-09-25T05:52:38.938Z,79.36
2022-09-25T05:55:10.740Z,78.98
2022-09-25T05:57:40.489Z,79.54
2022-09-25T06:00:11.484Z,79.54
2022-09-25T06:02:44.273Z,79.44
2022-09-25T06:05:14.637Z,78.93
2022-09-25T06:07:44.376Z,79.58
2022-09-25T06:13:05.787Z,79.58
2022-09-25T06:15:41.995Z,79.51
2022-09-25T06:18:13.343Z,79.51
2022-09-25T06:20:44.028Z,79.25
2022-09-25T06:23:14.138Z,79.07
2022-09-25T06:25:44.257Z,79.38
2022-09-25T06:28:15.355Z,78.79
2022-09-25T06:30:45.480Z,79.01
2022-09-25T06:33:15.773Z,78.85
2022-09-25T06:35:47.823Z,78.54
2022-09-25T06:38:18.037Z,78.41
2022-09-25T06:40:47.990Z,78.04
2022-09-25T06:43:18.057Z,77.24
2022-09-25T06:45:49.184Z,77.24
2022-09-25T06:48:20.781Z,76.68
2022-09-25T06:50:56.186Z,76.94
2022-09-25T06:53:26.804Z,76.94
2022-09-25T06:55:59.778Z,76.32
2022-09-25T06:58:30.783Z,75.88
2022-09-25T07:01:00.698Z,77.11
2022-09-25T07:03:45.256Z,76.54
2022-09-25T07:06:21.934Z,76.59
2022-09-25T07:08:52.305Z,77.10
2022-09-25T07:11:24.900Z,76.72
2022-09-25T07:13:55.156Z,77.16
2022-09-25T07:16:30.501Z,76.72
2022-09-25T07:19:01.055Z,76.95
2022-09-25T07:21:32.084Z,76.09
2022-09-25T07:24:01.926Z,76.54
2022-09-25T07:26:33.672Z,76.66
2022-09-25T07:29:07.586Z,77.10
2022-09-25T07:31:39.175Z,75.70
2022-09-25T07:34:12.612Z,75.70
2022-09-25T07:36:42.950Z,75.63
2022-09-25T07:39:18.166Z,75.21
2022-09-25T07:41:44.447Z,75.26
2022-09-25T07:44:33.631Z,75.47
2022-09-25T07:46:46.104Z,75.10
2022-09-25T07:49:16.187Z,74.96
2022-09-25T07:51:45.927Z,74.34
2022-09-25T07:54:15.838Z,73.77
2022-09-25T07:56:45.566Z,74.28
2022-09-25T07:59:15.619Z,72.88
2022-09-25T08:01:48.564Z,74.06
2022-09-25T08:04:16.757Z,73.71
2022-09-25T08:06:46.476Z,72.54
2022-09-25T08:09:16.301Z,72.34
2022-09-25T08:11:46.337Z,71.08
2022-09-25T08:14:16.337Z,70.21
2022-09-25T08:16:47.457Z,70.11
2022-09-25T08:19:18.365Z,70.44
2022-09-25T08:21:47.853Z,70.11
2022-09-25T08:24:17.636Z,69.43
2022-09-25T08:26:48.202Z,69.48
2022-09-25T08:29:18.435Z,69.10
2022-09-25T08:31:48.347Z,69.11
2022-09-25T08:36:51.000Z,68.49
2022-09-25T08:39:21.012Z,68.75
2022-09-25T08:41:56.228Z,68.96
2022-09-25T08:44:37.748Z,67.75
2022-09-25T08:47:30.865Z,69.52
2022-09-25T08:50:15.755Z,68.24
2022-09-25T08:52:48.859Z,66.70
2022-09-25T08:55:28.661Z,66.70
2022-09-25T08:57:58.455Z,67.91
2022-09-25T09:00:29.846Z,67.13
2022-09-25T09:03:00.370Z,67.35
2022-09-25T09:05:39.201Z,65.71
2022-09-25T09:08:14.956Z,65.82
2022-09-25T09:10:59.592Z,66.58
2022-09-25T09:13:32.373Z,65.01
2022-09-25T09:16:10.728Z,63.99
2022-09-25T09:18:43.258Z,64.49
2022-09-25T09:21:22.582Z,62.74
2022-09-25T09:24:09.958Z,62.86
2022-09-25T09:27:04.030Z,61.17
2022-09-25T09:29:54.325Z,61.76
2022-09-25T09:32:32.741Z,59.70
2022-09-25T09:35:20.630Z,58.97
2022-09-25T09:37:59.092Z,58.86
2022-09-25T09:40:51.619Z,57.78
2022-09-25T09:43:38.521Z,57.64
2022-09-25T09:46:35.570Z,56.19
2022-09-25T09:49:24.752Z,57.21
2022-09-25T09:52:06.216Z,55.53
2022-09-25T09:54:42.811Z,53.75
2022-09-25T09:57:15.800Z,53.85
2022-09-25T09:59:48.590Z,51.18
2022-09-25T10:02:30.106Z,53.74
2022-09-25T10:05:03.768Z,54.17
2022-09-25T10:07:36.614Z,54.04
2022-09-25T10:10:15.779Z,50.55
2022-09-25T10:12:53.688Z,50.02
2022-09-25T10:15:42.647Z,50.18
2022-09-25T10:18:14.084Z,50.43
2022-09-25T10:20:49.414Z,50.43
2022-09-25T10:23:40.303Z,51.43
2022-09-25T10:26:29.419Z,51.23
2022-09-25T10:29:02.241Z,51.23
2022-09-25T10:31:37.640Z,50.50
2022-09-25T10:34:20.111Z,49.49
2022-09-25T10:36:54.672Z,47.98
2022-09-25T10:39:45.275Z,47.61
2022-09-25T10:42:11.845Z,47.76
2022-09-25T10:44:41.649Z,47.76
2022-09-25T10:47:40.860Z,48.20
2022-09-25T10:50:26.940Z,48.88
2022-09-25T10:53:02.620Z,49.72
2022-09-25T10:55:41.630Z,48.13
2022-09-25T10:58:20.659Z,47.91
2022-09-25T11:00:56.572Z,46.62
2022-09-25T11:03:35.566Z,46.62
2022-09-25T11:06:09.590Z,47.27
2022-09-25T11:08:41.253Z,46.66
2022-09-25T11:11:12.132Z,46.63
2022-09-25T11:13:50.545Z,45.82
2022-09-25T11:16:20.276Z,45.56
2022-09-25T11:18:52.232Z,46.51
2022-09-25T11:21:30.572Z,48.16
2022-09-25T11:24:19.744Z,48.77
2022-09-25T11:26:55.457Z,48.29
2022-09-25T11:29:45.419Z,48.88
2022-09-25T11:32:23.495Z,46.63
2022-09-25T11:35:20.260Z,49.21
2022-09-25T11:37:55.660Z,47.33
2022-09-25T11:40:57.998Z,47.13
2022-09-25T11:43:52.087Z,46.88
2022-09-25T11:46:35.223Z,44.20
2022-09-25T11:49:19.773Z,44.64
2022-09-25T11:52:08.954Z,44.64
2022-09-25T11:54:58.151Z,44.05
2022-09-25T11:57:35.020Z,43.60
2022-09-25T12:00:22.301Z,42.23
2022-09-25T12:03:13.201Z,40.73
2022-09-25T12:06:08.189Z,40.26
2022-09-25T12:08:59.891Z,40.26
2022-09-25T12:11:54.567Z,39.00
2022-09-25T12:14:42.690Z,38.32
2022-09-25T12:17:38.894Z,40.08
2022-09-25T12:20:40.232Z,40.08
2022-09-25T12:23:27.658Z,40.76
2022-09-25T12:26:33.363Z,39.86
2022-09-25T12:29:21.917Z,38.70
2022-09-25T12:31:58.024Z,39.18
2022-09-25T12:34:56.585Z,39.33
2022-09-25T12:37:47.371Z,39.92
2022-09-25T12:40:32.278Z,39.23
2022-09-25T12:43:07.879Z,41.22
2022-09-25T12:45:51.821Z,43.10
2022-09-25T12:48:27.508Z,44.01
2022-09-25T12:51:06.889Z,44.27
2022-09-25T12:53:48.121Z,43.16
2022-09-25T12:56:24.155Z,42.33
2022-09-25T12:59:11.760Z,42.21
2022-09-25T13:01:57.340Z,41.08
2022-09-25T13:07:29.935Z,40.04
2022-09-25T13:10:00.767Z,38.37
2022-09-25T13:12:36.084Z,38.41
2022-09-25T13:15:23.493Z,36.66
2022-09-25T13:17:53.037Z,38.66
2022-09-25T13:20:31.787Z,39.66
2022-09-25T13:23:04.542Z,39.92
2022-09-25T13:25:50.864Z,40.16
2022-09-25T13:28:23.506Z,39.01
2022-09-25T13:31:11.270Z,38.76
2022-09-25T13:33:49.910Z,38.54
2022-09-25T13:36:28.264Z,38.97
2022-09-25T13:39:20.764Z,39.68
2022-09-25T13:42:02.480Z,37.76
2022-09-25T13:44:46.688Z,39.45
2022-09-25T13:47:25.020Z,41.12
2022-09-25T13:49:57.793Z,41.12
2022-09-25T13:52:32.937Z,39.38
2022-09-25T13:55:22.055Z,41.26
2022-09-25T13:58:01.424Z,40.59
2022-09-25T14:00:46.227Z,39.47
2022-09-25T14:03:37.025Z,36.83
2022-09-25T14:06:13.688Z,38.18
2022-09-25T14:08:46.362Z,39.78
2022-09-25T14:11:19.143Z,40.68
2022-09-25T14:13:52.440Z,40.83
2022-09-25T14:16:27.758Z,42.69
2022-09-25T14:18:59.764Z,43.63
2022-09-25T14:21:31.492Z,43.15
2022-09-25T14:24:21.297Z,43.15
2022-09-25T14:26:52.028Z,43.85
2022-09-25T14:29:27.510Z,44.90
2022-09-25T14:32:05.719Z,45.21
2022-09-25T14:34:56.047Z,45.63
2022-09-25T14:37:55.650Z,45.22
2022-09-25T14:40:30.188Z,44.79
2022-09-25T14:46:17.359Z,46.15
2022-09-25T14:48:52.507Z,47.18
2022-09-25T14:51:31.150Z,46.64
2022-09-25T14:54:04.380Z,47.23
2022-09-25T14:56:37.381Z,46.84
2022-09-25T14:59:13.093Z,47.18
2022-09-25T15:01:48.114Z,47.00
2022-09-25T15:04:32.661Z,47.40
2022-09-25T15:07:10.858Z,47.08
2022-09-25T15:09:44.465Z,46.59
2022-09-25T15:12:34.014Z,46.68
2022-09-25T15:15:09.850Z,46.02
2022-09-25T15:17:49.342Z,45.09
2022-09-25T15:20:24.159Z,44.55
2022-09-25T15:23:03.340Z,44.64
2022-09-25T15:25:41.883Z,44.53
2022-09-25T15:28:15.034Z,44.47
2022-09-25T15:30:47.201Z,45.70
2022-09-25T15:33:26.470Z,45.64
2022-09-25T15:36:04.761Z,45.00
2022-09-25T15:38:37.571Z,45.20
2022-09-25T15:41:12.602Z,45.97
2022-09-25T15:43:43.142Z,46.14
2022-09-25T15:46:30.814Z,47.80
2022-09-25T15:49:01.941Z,47.80
2022-09-25T15:51:33.771Z,46.96
2022-09-25T15:54:09.287Z,47.78
2022-09-25T15:56:47.806Z,47.74
2022-09-25T15:59:20.574Z,48.09
2022-09-25T16:02:08.354Z,48.25
2022-09-25T16:04:40.098Z,48.61
2022-09-25T16:07:34.199Z,49.16
2022-09-25T16:10:13.566Z,49.72
2022-09-25T16:12:49.055Z,50.27
2022-09-25T16:15:30.993Z,51.47
2022-09-25T16:18:05.915Z,51.60
2022-09-25T16:20:37.480Z,52.46
2022-09-25T16:23:09.852Z,52.07
2022-09-25T16:28:27.230Z,52.57
2022-09-25T16:31:05.077Z,52.19
2022-09-25T16:33:38.766Z,52.33
2022-09-25T16:36:17.512Z,52.54
2022-09-25T16:39:10.300Z,52.42
2022-09-25T16:41:43.076Z,53.10
2022-09-25T16:44:18.863Z,53.15
2022-09-25T16:46:59.904Z,53.35
2022-09-25T16:49:31.263Z,53.59
2022-09-25T16:52:03.071Z,53.87
2022-09-25T16:54:33.550Z,54.01
2022-09-25T16:57:04.047Z,54.57
2022-09-25T16:59:33.817Z,54.12
2022-09-25T17:02:06.690Z,54.71
2022-09-25T17:04:38.614Z,55.25
2022-09-25T17:07:10.182Z,55.39
2022-09-25T17:09:40.197Z,56.25
2022-09-25T17:12:14.113Z,56.25
2022-09-25T17:14:44.039Z,55.71
2022-09-25T17:17:16.806Z,56.59
2022-09-25T17:19:46.673Z,56.34
2022-09-25T17:22:16.465Z,57.26
2022-09-25T17:24:46.214Z,57.07
2022-09-25T17:27:17.067Z,57.17
2022-09-25T17:29:48.071Z,57.42
2022-09-25T17:32:17.861Z,57.52
2022-09-25T17:34:47.743Z,58.09
2022-09-25T17:37:17.535Z,58.98
2022-09-25T17:39:47.300Z,58.53
2022-09-25T17:42:17.287Z,58.48
2022-09-25T17:44:47.321Z,59.36
2022-09-25T17:47:17.042Z,59.45
2022-09-25T17:49:48.467Z,59.63
2022-09-25T17:52:20.257Z,59.56
2022-09-25T17:54:50.059Z,60.16
2022-09-25T17:57:19.807Z,59.87
2022-09-25T17:59:49.575Z,60.49
2022-09-25T18:02:19.475Z,60.50
2022-09-25T18:04:49.574Z,60.00
2022-09-25T18:07:20.307Z,60.48
2022-09-25T18:09:50.055Z,60.87
2022-09-25T18:12:19.507Z,61.59
2022-09-25T18:14:50.665Z,61.65
2022-09-25T18:17:20.159Z,61.67
2022-09-25T18:20:07.520Z,61.50
2022-09-25T18:22:38.111Z,61.42
2022-09-25T18:25:10.276Z,61.73
2022-09-25T18:27:41.731Z,62.04
2022-09-25T18:30:16.297Z,62.17
2022-09-25T18:32:46.017Z,62.07
2022-09-25T18:35:15.980Z,62.94
2022-09-25T18:37:46.143Z,63.51
2022-09-25T18:40:18.425Z,63.77
2022-09-25T18:42:48.385Z,63.67
2022-09-25T18:45:18.145Z,64.00
2022-09-25T18:47:47.947Z,64.51
2022-09-25T18:50:20.872Z,64.51
2022-09-25T18:52:51.003Z,64.89
2022-09-25T18:55:20.663Z,64.72
2022-09-25T18:57:50.385Z,64.65
2022-09-25T19:00:20.717Z,64.93
2022-09-25T19:02:50.724Z,64.89
2022-09-25T19:05:20.664Z,65.73
2022-09-25T19:07:50.155Z,65.03
2022-09-25T19:10:20.049Z,65.12
2022-09-25T19:12:49.801Z,65.31
2022-09-25T19:15:19.299Z,65.00
2022-09-25T19:17:49.038Z,65.44
2022-09-25T19:20:18.878Z,65.55
2022-09-25T19:22:49.029Z,65.65
2022-09-25T19:25:22.339Z,65.42
2022-09-25T19:27:50.443Z,65.48
2022-09-25T19:30:22.063Z,65.83
2022-09-25T19:32:51.861Z,65.95
2022-09-25T19:35:21.745Z,66.32
2022-09-25T19:37:51.820Z,66.94
2022-09-25T19:40:36.612Z,66.30
2022-09-25T19:43:08.287Z,66.44
2022-09-25T19:45:37.992Z,66.80
2022-09-25T19:48:09.349Z,67.41
2022-09-25T19:50:43.324Z,67.49
2022-09-25T19:53:14.213Z,67.70
2022-09-25T19:55:44.030Z,67.84
2022-09-25T19:58:13.527Z,67.44
2022-09-25T20:00:43.652Z,67.74
2022-09-25T20:03:13.471Z,67.13
2022-09-25T20:05:44.514Z,67.68
2022-09-25T20:08:14.253Z,67.64
2022-09-25T20:10:43.993Z,67.56
2022-09-25T20:13:13.717Z,67.37
2022-09-25T20:15:45.127Z,67.97
2022-09-25T20:18:16.792Z,67.86
2022-09-25T20:20:46.853Z,67.21
2022-09-25T20:23:16.660Z,67.84
2022-09-25T20:25:46.390Z,67.17
2022-09-25T20:28:16.196Z,67.57
2022-09-25T20:30:45.983Z,68.07
2022-09-25T20:33:15.741Z,68.09
2022-09-25T20:35:45.492Z,68.17
2022-09-25T20:38:14.936Z,67.64
2022-09-25T20:40:44.728Z,68.10
2022-09-25T20:43:14.474Z,67.84
2022-09-25T20:45:44.537Z,67.86
2022-09-25T20:48:15.819Z,68.68
2022-09-25T20:50:50.995Z,68.68
2022-09-25T20:53:20.726Z,69.02
2022-09-25T20:55:51.326Z,69.01
2022-09-25T20:58:20.912Z,69.33
2022-09-25T21:00:51.317Z,68.98
2022-09-25T21:03:21.052Z,68.94
2022-09-25T21:05:50.785Z,68.69
2022-09-25T21:08:20.308Z,69.23
2022-09-25T21:10:51.581Z,69.40
2022-09-25T21:13:21.523Z,69.74
2022-09-25T21:15:51.438Z,70.16
2022-09-25T21:18:21.459Z,70.06
2022-09-25T21:20:51.189Z,70.14
2022-09-25T21:23:21.108Z,70.01
2022-09-25T21:25:51.302Z,70.03
2022-09-25T21:28:22.033Z,70.23
2022-09-25T21:30:51.844Z,70.59
2022-09-25T21:33:21.789Z,70.05
2022-09-25T21:35:51.511Z,69.78
2022-09-25T21:38:20.949Z,69.69
2022-09-25T21:40:50.886Z,69.71
2022-09-25T21:43:20.603Z,69.28
2022-09-25T21:45:50.683Z,69.65
2022-09-25T21:48:20.590Z,69.69
2022-09-25T21:50:58.043Z,69.04
2022-09-25T21:53:28.243Z,68.89
2022-09-25T21:56:09.515Z,69.42
2022-09-25T21:58:39.600Z,69.68
2022-09-25T22:01:12.266Z,69.57
2022-09-25T22:03:44.053Z,69.88
2022-09-25T22:06:16.224Z,68.96
2022-09-25T22:08:48.400Z,69.18
2022-09-25T22:11:19.039Z,69.24
2022-09-25T22:13:50.313Z,69.09
2022-09-25T22:16:22.499Z,69.14
2022-09-25T22:18:55.348Z,69.02
2022-09-25T22:21:28.110Z,68.81
2022-09-25T22:23:58.371Z,68.90
2022-09-25T22:26:29.395Z,68.90
2022-09-25T22:28:59.134Z,68.61
2022-09-25T22:31:31.300Z,69.14
2022-09-25T22:34:03.723Z,69.44
2022-09-25T22:36:36.198Z,69.25
2022-09-25T22:39:07.057Z,69.42
2022-09-25T22:41:37.079Z,69.08
2022-09-25T22:44:08.432Z,69.46
2022-09-25T22:46:38.270Z,68.97
2022-09-25T22:49:08.087Z,69.26
2022-09-25T22:51:37.827Z,69.99
2022-09-25T22:54:10.600Z,69.85
2022-09-25T22:56:40.892Z,69.85
2022-09-25T22:59:14.450Z,69.46
2022-09-25T23:01:47.685Z,70.11
2022-09-25T23:04:22.873Z,70.37
2022-09-25T23:06:52.801Z,70.38
2022-09-25T23:09:25.838Z,70.42
2022-09-25T23:11:57.348Z,70.93
2022-09-25T23:14:29.673Z,70.93
2022-09-25T23:17:01.755Z,71.40
2022-09-25T23:19:31.796Z,71.57
2022-09-25T23:22:01.623Z,71.61
2022-09-25T23:24:31.481Z,71.72
2022-09-25T23:27:01.202Z,71.63
2022-09-25T23:29:30.949Z,72.47
2022-09-25T23:32:00.857Z,72.90
2022-09-25T23:34:30.693Z,72.85
2022-09-25T23:37:00.139Z,73.07
2022-09-25T23:39:30.097Z,73.80
2022-09-25T23:41:59.842Z,72.96
2022-09-25T23:44:29.638Z,73.22
2022-09-25T23:46:59.303Z,73.31
2022-09-25T23:49:29.042Z,72.59
2022-09-25T23:51:58.787Z,73.07
2022-09-25T23:54:28.517Z,73.00
2022-09-25T23:56:59.206Z,72.42
2022-09-25T23:59:28.925Z,72.67
